National Weather Service Raw Text Product

Displaying AFOS PIL: TAFFOD Received: 2017-08-13 05:20 UTC


891 
FTUS43 KDMX 130520
TAFFOD
TAF
KFOD 130520Z 1306/1406 13005KT P6SM BKN200
     FM131500 16009KT P6SM BKN100
     FM140000 14009KT P6SM VCTS BKN070CB=